Elko, Canada
Current Conditions -  °F | °C
As of 11:00 AM on Friday 31 Oct 2014 (Local Time) from CYXC Reporting Station
Haze Haze  
Wind Chill:   Ceiling: 22000
Heat Index:   Visibility: 1mi
Dew Point:   Wind: 0mph
Humidity: 93%   Direction: NA
Pressure: 29.77"   Gusts: NA
Location:  49.3°N, 115.12°W
Report Text: CYXC 311700Z 00000KT 1SM BR OVC220 04/03 A2977 RMK FG5CI3 SLP098
Loading
Personal Weather Stations






























Interactive Weather Map
Tropical Storm Tracking
New forecast layout! Learn more

10-Day Weather Forecast

Advertisements
Track Severe Weather on mobile